YWLM/NTL METAR and TAF weather

Enter ICAO airport designator
Station Type Date Time Source
YWLM METAR 2020/01/27 14:00 UTC NOAA

YWLM 271400Z AUTO 04006KT 9999 // NCD 25/20 Q1011


Station Type Date Time Source
YWLM Decoded METAR 2020/01/27 14:00 UTC NOAA

Station name not available
Jan 27, 2020 - 09:00 AM EST / 2020.01.27 1400 UTC
Wind: from the NE (040 degrees) at 7 MPH (6 KT):0
Visibility: greater than 7 mile(s):0
Temperature: 77 F (25 C)
Dew Point: 68 F (20 C)
Relative Humidity: 73%
Pressure (altimeter): 29.85 in. Hg (1011 hPa)
ob: YWLM 271400Z AUTO 04006KT 9999 // NCD 25/20 Q1011
cycle: 14

Station Type Date Time Source
YWLM TAF 2020/01/27 12:00 UTC NOAA

TAF
AMD YWLM 271058Z 2712/2812 04008KT 9999 SCT025
FM280000 06011KT 9999 FEW020 SCT030
FM280600 17010KT 9999 -SHRA FEW010 BKN020 INTER 2810/2812 5000 SHRA BKN010 PROB30 INTER 2805/2810 4000 TSRA BKN010 SCT045CB

Example: see airport list